createdAt,value
2023-02-02T00:00:22.712Z,6.60
2023-02-02T00:02:49.272Z,5.47
2023-02-02T00:05:15.957Z,6.35
2023-02-02T00:07:42.493Z,6.10
2023-02-02T00:10:09.463Z,5.40
2023-02-02T00:12:35.977Z,5.47
2023-02-02T00:15:02.480Z,6.30
2023-02-02T00:17:28.960Z,5.32
2023-02-02T00:19:55.390Z,6.25
2023-02-02T00:22:21.977Z,5.57
2023-02-02T00:24:48.466Z,5.38
2023-02-02T00:27:14.922Z,6.40
2023-02-02T00:29:41.321Z,5.78
2023-02-02T00:32:07.901Z,6.50
2023-02-02T00:34:34.365Z,5.70
2023-02-02T00:37:00.927Z,5.93
2023-02-02T00:39:27.507Z,5.20
2023-02-02T00:41:54.688Z,6.53
2023-02-02T00:44:39.697Z,5.40
2023-02-02T00:47:06.215Z,5.97
2023-02-02T00:49:32.699Z,5.38
2023-02-02T00:52:00.276Z,5.70
2023-02-02T00:54:26.903Z,5.90
2023-02-02T00:56:53.462Z,6.40
2023-02-02T00:59:19.898Z,6.53
2023-02-02T01:01:46.363Z,5.95
2023-02-02T01:04:12.958Z,5.57
2023-02-02T01:06:39.385Z,5.50
2023-02-02T01:09:05.896Z,5.70
2023-02-02T01:11:32.377Z,6.55
2023-02-02T01:13:58.854Z,6.57
2023-02-02T01:16:25.422Z,5.90
2023-02-02T01:18:52.434Z,5.45
2023-02-02T01:21:21.913Z,5.82
2023-02-02T01:26:16.224Z,6.30
2023-02-02T01:28:43.332Z,5.50
2023-02-02T01:31:12.401Z,6.20
2023-02-02T01:33:39.330Z,5.80
2023-02-02T01:36:10.038Z,5.57
2023-02-02T01:38:36.747Z,6.53
2023-02-02T01:41:04.640Z,5.70
2023-02-02T01:43:52.878Z,6.50
2023-02-02T01:46:22.515Z,7.63
2023-02-02T01:49:19.963Z,5.90
2023-02-02T01:51:56.328Z,6.28
2023-02-02T01:54:35.637Z,6.43
2023-02-02T01:59:35.728Z,6.80
2023-02-02T02:02:03.023Z,6.60
2023-02-02T02:04:31.295Z,7.75
2023-02-02T02:06:58.911Z,5.53
2023-02-02T02:09:25.504Z,6.57
2023-02-02T02:11:53.546Z,5.43
2023-02-02T02:14:39.944Z,6.65
2023-02-02T02:17:21.589Z,5.78
2023-02-02T02:20:12.881Z,5.50
2023-02-02T02:23:25.944Z,6.10
2023-02-02T02:26:34.750Z,5.93
2023-02-02T02:29:32.305Z,6.78
2023-02-02T02:32:29.888Z,6.85
2023-02-02T02:35:05.543Z,6.82
2023-02-02T02:37:46.717Z,6.60
2023-02-02T02:40:39.945Z,6.18
2023-02-02T02:43:15.495Z,6.15
2023-02-02T02:45:44.572Z,6.32
2023-02-02T02:48:11.387Z,6.47
2023-02-02T02:50:38.405Z,5.85
2023-02-02T02:53:21.505Z,5.85
2023-02-02T02:55:56.813Z,7.70
2023-02-02T02:58:49.065Z,6.72
2023-02-02T03:01:28.518Z,6.28
2023-02-02T03:04:10.903Z,6.03
2023-02-02T03:07:04.673Z,6.57
2023-02-02T03:09:35.950Z,5.40
2023-02-02T03:12:03.095Z,6.82
2023-02-02T03:14:34.168Z,7.00
2023-02-02T03:17:00.612Z,6.65
2023-02-02T03:19:27.368Z,7.22
2023-02-02T03:21:53.904Z,6.97
2023-02-02T03:24:20.388Z,6.80
2023-02-02T03:26:46.984Z,7.70
2023-02-02T03:29:13.961Z,7.05
2023-02-02T03:31:40.479Z,6.55
2023-02-02T03:34:07.027Z,7.40
2023-02-02T03:36:33.510Z,7.43
2023-02-02T03:38:59.961Z,7.10
2023-02-02T03:41:26.548Z,7.85
2023-02-02T03:43:53.066Z,7.82
2023-02-02T03:46:19.577Z,8.38
2023-02-02T03:48:46.078Z,7.60
2023-02-02T03:51:14.489Z,8.38
2023-02-02T03:53:44.915Z,8.10
2023-02-02T03:56:11.463Z,8.10
2023-02-02T03:58:37.893Z,7.00
2023-02-02T04:01:06.882Z,8.13
2023-02-02T04:03:34.123Z,7.78
2023-02-02T04:06:00.844Z,7.70
2023-02-02T04:08:28.474Z,6.88
2023-02-02T04:10:54.878Z,8.63
2023-02-02T04:13:21.465Z,7.65
2023-02-02T04:15:48.201Z,6.38
2023-02-02T04:18:14.676Z,6.72
2023-02-02T04:20:41.167Z,6.70
2023-02-02T04:23:07.700Z,6.35
2023-02-02T04:25:34.322Z,5.82
2023-02-02T04:28:00.810Z,6.60
2023-02-02T04:30:27.250Z,7.40
2023-02-02T04:32:54.870Z,6.82
2023-02-02T04:35:21.396Z,7.40
2023-02-02T04:37:47.949Z,7.72
2023-02-02T04:40:14.456Z,7.05
2023-02-02T04:42:40.997Z,7.28
2023-02-02T04:45:07.939Z,7.25
2023-02-02T04:47:34.527Z,8.00
2023-02-02T04:50:00.971Z,7.68
2023-02-02T04:52:29.042Z,7.82
2023-02-02T04:54:55.593Z,7.82
2023-02-02T04:57:22.169Z,8.25
2023-02-02T04:59:49.203Z,7.47
2023-02-02T05:02:15.728Z,9.27
2023-02-02T05:04:42.270Z,8.48
2023-02-02T05:07:08.959Z,7.82
2023-02-02T05:09:35.450Z,9.48
2023-02-02T05:12:01.932Z,8.93
2023-02-02T05:14:28.359Z,9.15
2023-02-02T05:16:54.949Z,10.07
2023-02-02T05:19:21.556Z,9.35
2023-02-02T05:21:51.133Z,9.23
2023-02-02T05:24:18.046Z,9.32
2023-02-02T05:26:44.601Z,9.68
2023-02-02T05:29:11.094Z,9.90
2023-02-02T05:31:37.733Z,8.60
2023-02-02T05:34:06.689Z,8.82
2023-02-02T05:36:33.253Z,9.40
2023-02-02T05:39:00.357Z,10.82
2023-02-02T05:41:26.948Z,8.85
2023-02-02T05:43:53.527Z,8.90
2023-02-02T05:46:20.060Z,9.35
2023-02-02T05:48:46.771Z,9.10
2023-02-02T05:51:20.234Z,8.95
2023-02-02T05:53:46.751Z,9.93
2023-02-02T05:56:15.532Z,9.27
2023-02-02T05:58:42.971Z,8.82
2023-02-02T06:01:09.899Z,9.32
2023-02-02T06:03:36.522Z,9.82
2023-02-02T06:06:06.580Z,9.70
2023-02-02T06:08:33.401Z,8.70
2023-02-02T06:10:59.881Z,9.45
2023-02-02T06:13:26.594Z,9.18
2023-02-02T06:15:53.132Z,9.05
2023-02-02T06:18:19.643Z,9.98
2023-02-02T06:20:46.983Z,8.50
2023-02-02T06:23:13.600Z,8.30
2023-02-02T06:25:40.120Z,8.85
2023-02-02T06:28:07.697Z,9.80
2023-02-02T06:30:34.314Z,8.88
2023-02-02T06:33:00.941Z,8.45
2023-02-02T06:35:27.702Z,9.63
2023-02-02T06:37:54.269Z,7.95
2023-02-02T06:40:20.825Z,8.50
2023-02-02T06:42:47.302Z,9.48
2023-02-02T06:45:13.858Z,8.50
2023-02-02T06:47:40.440Z,9.30
2023-02-02T06:50:08.705Z,8.75
2023-02-02T06:52:35.317Z,8.52
2023-02-02T06:55:01.858Z,9.15
2023-02-02T06:57:28.383Z,8.85
2023-02-02T06:59:54.898Z,8.68
2023-02-02T07:02:23.268Z,8.75
2023-02-02T07:04:49.780Z,8.10
2023-02-02T07:07:16.302Z,9.15
2023-02-02T07:09:43.071Z,8.27
2023-02-02T07:12:09.903Z,7.45
2023-02-02T07:14:36.423Z,8.93
2023-02-02T07:17:02.879Z,9.25
2023-02-02T07:19:29.384Z,8.63
2023-02-02T07:21:55.860Z,8.88
2023-02-02T07:24:22.454Z,8.48
2023-02-02T07:26:48.998Z,8.88
2023-02-02T07:29:15.628Z,8.20
2023-02-02T07:31:42.270Z,8.48
2023-02-02T07:34:08.814Z,9.40
2023-02-02T07:36:35.943Z,8.18
2023-02-02T07:39:04.686Z,9.13
2023-02-02T07:41:31.803Z,7.93
2023-02-02T07:43:58.380Z,7.93
2023-02-02T07:46:25.143Z,8.00
2023-02-02T07:48:55.113Z,8.40
2023-02-02T07:51:21.988Z,7.28
2023-02-02T07:53:51.935Z,7.30
2023-02-02T07:56:21.677Z,7.47
2023-02-02T07:58:48.546Z,6.80
2023-02-02T08:01:16.050Z,7.50
2023-02-02T08:03:43.318Z,7.50
2023-02-02T08:06:13.274Z,7.88
2023-02-02T08:08:40.108Z,7.13
2023-02-02T08:11:13.362Z,7.50
2023-02-02T08:13:41.856Z,7.25
2023-02-02T08:16:09.058Z,8.43
2023-02-02T08:18:36.247Z,7.43
2023-02-02T08:21:04.295Z,7.97
2023-02-02T08:23:31.334Z,7.82
2023-02-02T08:26:13.867Z,8.52
2023-02-02T08:28:41.528Z,8.48
2023-02-02T08:31:16.155Z,8.80
2023-02-02T08:33:43.076Z,7.90
2023-02-02T08:36:17.797Z,8.07
2023-02-02T08:38:44.655Z,9.98
2023-02-02T08:41:14.003Z,9.43
2023-02-02T08:43:41.361Z,8.10
2023-02-02T08:46:11.209Z,10.05
2023-02-02T08:48:38.301Z,9.50
2023-02-02T08:51:06.950Z,9.07
2023-02-02T08:53:34.221Z,8.88
2023-02-02T08:56:16.267Z,9.80
2023-02-02T08:58:58.018Z,9.35
2023-02-02T09:01:28.179Z,8.07
2023-02-02T09:04:16.193Z,8.55
2023-02-02T09:06:43.201Z,10.63
2023-02-02T09:09:12.836Z,8.93
2023-02-02T09:11:40.077Z,9.80
2023-02-02T09:14:07.668Z,8.57
2023-02-02T09:16:35.502Z,9.50
2023-02-02T09:19:02.645Z,9.07
2023-02-02T09:21:29.276Z,10.32
2023-02-02T09:23:55.802Z,9.70
2023-02-02T09:26:25.990Z,9.05
2023-02-02T09:28:55.275Z,9.55
2023-02-02T09:31:23.460Z,9.88
2023-02-02T09:33:50.567Z,9.38
2023-02-02T09:36:22.623Z,9.32
2023-02-02T09:38:50.674Z,9.85
2023-02-02T09:41:38.155Z,9.13
2023-02-02T09:44:22.784Z,9.82
2023-02-02T09:47:01.453Z,9.60
2023-02-02T09:49:44.942Z,8.52
2023-02-02T09:52:23.324Z,9.27
2023-02-02T09:54:54.795Z,7.85
2023-02-02T09:57:28.339Z,8.35
2023-02-02T09:59:55.723Z,8.52
2023-02-02T10:02:38.617Z,7.53
2023-02-02T10:05:15.434Z,8.48
2023-02-02T10:07:48.198Z,7.40
2023-02-02T10:10:20.587Z,7.75
2023-02-02T10:13:05.931Z,8.43
2023-02-02T10:16:01.805Z,8.85
2023-02-02T10:18:45.163Z,7.80
2023-02-02T10:21:29.042Z,8.10
2023-02-02T10:23:57.191Z,9.57
2023-02-02T10:26:38.709Z,8.73
2023-02-02T10:29:26.299Z,8.38
2023-02-02T10:32:24.387Z,9.98
2023-02-02T10:35:17.179Z,8.77
2023-02-02T10:37:59.859Z,8.48
2023-02-02T10:40:38.281Z,8.73
2023-02-02T10:43:47.245Z,9.43
2023-02-02T10:46:30.414Z,7.97
2023-02-02T10:49:29.252Z,8.63
2023-02-02T10:52:13.782Z,8.73
2023-02-02T10:55:07.719Z,8.65
2023-02-02T10:57:50.860Z,9.10
2023-02-02T11:00:39.025Z,9.15
2023-02-02T11:03:07.162Z,8.48
2023-02-02T11:05:52.725Z,8.63
2023-02-02T11:08:25.091Z,8.25
2023-02-02T11:10:54.725Z,8.45
2023-02-02T11:13:33.763Z,8.10
2023-02-02T11:16:15.570Z,7.53
2023-02-02T11:18:44.339Z,8.07
2023-02-02T11:21:21.871Z,7.95
2023-02-02T11:23:59.068Z,8.35
2023-02-02T11:26:27.580Z,8.07
2023-02-02T11:28:56.176Z,7.23
2023-02-02T11:31:41.250Z,7.85
2023-02-02T11:34:20.592Z,7.78
2023-02-02T11:39:28.508Z,7.53
2023-02-02T11:42:00.920Z,7.22
2023-02-02T11:44:29.378Z,7.60
2023-02-02T11:46:57.363Z,7.13
2023-02-02T11:49:24.457Z,7.70
2023-02-02T11:52:04.415Z,8.60
2023-02-02T11:54:35.841Z,7.43
2023-02-02T11:57:09.593Z,7.68
2023-02-02T11:59:39.315Z,7.57
2023-02-02T12:04:56.479Z,7.35
2023-02-02T12:07:29.144Z,7.70
2023-02-02T12:10:13.543Z,7.63
2023-02-02T12:12:53.484Z,6.80
2023-02-02T12:15:31.787Z,6.63
2023-02-02T12:18:22.909Z,7.60
2023-02-02T12:21:04.663Z,6.45
2023-02-02T12:23:39.896Z,7.38
2023-02-02T12:26:20.130Z,6.80
2023-02-02T12:28:54.256Z,7.03
2023-02-02T12:31:32.950Z,7.40
2023-02-02T12:34:15.961Z,7.30
2023-02-02T12:37:13.611Z,7.15
2023-02-02T12:40:21.675Z,7.18
2023-02-02T12:43:13.457Z,7.47
2023-02-02T12:45:51.068Z,6.03
2023-02-02T12:48:39.135Z,7.15
2023-02-02T12:51:31.215Z,6.80
2023-02-02T12:54:34.643Z,6.78
2023-02-02T12:57:19.910Z,6.90
2023-02-02T13:00:23.980Z,5.95
2023-02-02T13:03:05.967Z,5.82
2023-02-02T13:05:55.533Z,6.47
2023-02-02T13:08:35.987Z,6.27
2023-02-02T13:11:30.909Z,6.20
2023-02-02T13:14:08.399Z,5.70
2023-02-02T13:16:38.082Z,5.75
2023-02-02T13:19:11.403Z,5.40
2023-02-02T13:21:39.815Z,5.40
2023-02-02T13:24:11.992Z,5.38
2023-02-02T13:26:42.747Z,5.40
2023-02-02T13:29:22.214Z,5.43
2023-02-02T13:32:04.335Z,4.90
2023-02-02T13:34:46.836Z,5.10
2023-02-02T13:37:19.175Z,4.93
2023-02-02T13:39:58.458Z,4.18
2023-02-02T13:42:49.413Z,4.68
2023-02-02T13:45:34.667Z,4.60
2023-02-02T13:48:41.339Z,4.35
2023-02-02T13:51:42.313Z,4.50
2023-02-02T13:54:20.759Z,4.57
2023-02-02T13:57:02.846Z,4.03
2023-02-02T13:59:57.608Z,3.88
2023-02-02T14:02:39.830Z,3.92
2023-02-02T14:05:08.640Z,4.38
2023-02-02T14:07:41.913Z,3.80
2023-02-02T14:10:32.625Z,3.97
2023-02-02T14:13:34.494Z,4.57
2023-02-02T14:16:05.575Z,3.80
2023-02-02T14:18:55.925Z,4.30
2023-02-02T14:21:31.470Z,3.60
2023-02-02T14:24:04.680Z,3.80
2023-02-02T14:26:43.586Z,3.58
2023-02-02T14:29:35.675Z,3.13
2023-02-02T14:32:23.827Z,3.33
2023-02-02T14:34:58.968Z,3.50
2023-02-02T14:37:28.345Z,3.45
2023-02-02T14:40:07.097Z,3.25
2023-02-02T14:43:42.508Z,4.00
2023-02-02T14:46:14.913Z,3.55
2023-02-02T14:48:54.018Z,3.05
2023-02-02T14:51:29.361Z,3.58
2023-02-02T14:54:02.511Z,2.78
2023-02-02T14:56:54.299Z,3.00
2023-02-02T14:59:36.067Z,3.60
2023-02-02T15:02:09.767Z,2.90
2023-02-02T15:04:36.484Z,3.25
2023-02-02T15:07:24.579Z,2.72
2023-02-02T15:09:56.586Z,3.03
2023-02-02T15:12:29.412Z,2.92
2023-02-02T15:15:20.485Z,3.15
2023-02-02T15:17:59.986Z,2.75
2023-02-02T15:20:27.418Z,2.95
2023-02-02T15:23:06.030Z,3.00
2023-02-02T15:25:40.651Z,2.92
2023-02-02T15:28:41.220Z,3.40
2023-02-02T15:31:10.663Z,3.25
2023-02-02T15:36:13.489Z,3.03
2023-02-02T15:38:43.042Z,2.85
2023-02-02T15:43:47.302Z,3.15
2023-02-02T15:46:24.184Z,3.47
2023-02-02T15:49:32.600Z,2.88
2023-02-02T15:52:11.609Z,3.35
2023-02-02T15:54:38.517Z,2.50
2023-02-02T15:57:24.943Z,2.72
2023-02-02T15:59:51.794Z,2.65
2023-02-02T16:02:36.479Z,3.03
2023-02-02T16:05:22.187Z,3.33
2023-02-02T16:08:03.759Z,3.22
2023-02-02T16:10:31.343Z,3.08
2023-02-02T16:12:58.500Z,2.95
2023-02-02T16:15:28.479Z,2.90
2023-02-02T16:18:07.904Z,3.47
2023-02-02T16:20:37.266Z,2.90
2023-02-02T16:23:15.432Z,3.10
2023-02-02T16:25:51.293Z,2.65
2023-02-02T16:28:21.837Z,3.08
2023-02-02T16:30:49.336Z,2.90
2023-02-02T16:33:34.893Z,2.17
2023-02-02T16:36:09.968Z,2.60
2023-02-02T16:38:39.500Z,2.45
2023-02-02T16:41:08.814Z,3.22
2023-02-02T16:43:37.997Z,3.03
2023-02-02T16:46:16.457Z,3.05
2023-02-02T16:48:55.394Z,3.00
2023-02-02T16:51:24.198Z,2.58
2023-02-02T16:54:05.908Z,2.30
2023-02-02T16:56:41.805Z,2.63
2023-02-02T16:59:27.745Z,2.65
2023-02-02T17:01:58.103Z,3.40
2023-02-02T17:04:31.005Z,2.50
2023-02-02T17:07:07.337Z,3.05
2023-02-02T17:09:42.094Z,3.10
2023-02-02T17:12:37.466Z,3.30
2023-02-02T17:15:28.132Z,3.35
2023-02-02T17:17:55.033Z,2.53
2023-02-02T17:20:23.014Z,2.83
2023-02-02T17:23:09.724Z,2.78
2023-02-02T17:25:42.295Z,2.72
2023-02-02T17:28:15.797Z,2.72
2023-02-02T17:30:44.166Z,3.33
2023-02-02T17:33:16.233Z,2.90
2023-02-02T17:35:54.136Z,2.90
2023-02-02T17:38:22.344Z,2.92
2023-02-02T17:40:49.869Z,3.67
2023-02-02T17:43:16.621Z,2.97
2023-02-02T17:45:43.571Z,3.35
2023-02-02T17:48:12.171Z,3.15
2023-02-02T17:50:40.054Z,2.30
2023-02-02T17:53:10.718Z,3.40
2023-02-02T17:55:39.862Z,3.03
2023-02-02T17:58:06.460Z,3.17
2023-02-02T18:00:33.081Z,3.22
2023-02-02T18:03:09.369Z,2.92
2023-02-02T18:05:37.922Z,3.22
2023-02-02T18:08:04.896Z,4.23
2023-02-02T18:10:31.454Z,3.45
2023-02-02T18:12:58.116Z,3.20
2023-02-02T18:15:24.860Z,3.55
2023-02-02T18:17:51.526Z,4.15
2023-02-02T18:20:19.262Z,3.92
2023-02-02T18:22:48.221Z,4.22
2023-02-02T18:25:15.242Z,4.07
2023-02-02T18:27:42.081Z,4.00
2023-02-02T18:30:09.766Z,4.05
2023-02-02T18:32:38.337Z,4.72
2023-02-02T18:35:05.886Z,5.28
2023-02-02T18:37:32.556Z,5.03
2023-02-02T18:39:59.073Z,4.75
2023-02-02T18:42:29.776Z,6.47
2023-02-02T18:44:56.588Z,4.97
2023-02-02T18:47:23.383Z,5.47
2023-02-02T18:49:49.910Z,5.60
2023-02-02T18:52:16.539Z,5.72
2023-02-02T18:54:43.153Z,5.03
2023-02-02T18:57:13.815Z,5.40
2023-02-02T18:59:40.876Z,5.07
2023-02-02T19:02:12.322Z,5.75
2023-02-02T19:04:38.886Z,5.70
2023-02-02T19:07:23.962Z,6.25
2023-02-02T19:09:50.589Z,6.43
2023-02-02T19:12:17.228Z,5.65
2023-02-02T19:14:45.197Z,6.00
2023-02-02T19:17:14.494Z,5.65
2023-02-02T19:19:42.913Z,6.18
2023-02-02T19:22:20.039Z,5.63
2023-02-02T19:24:47.063Z,5.70
2023-02-02T19:27:23.245Z,5.55
2023-02-02T19:29:52.993Z,5.40
2023-02-02T19:32:23.105Z,6.18
2023-02-02T19:34:52.492Z,5.82
2023-02-02T19:37:25.962Z,5.40
2023-02-02T19:40:10.459Z,6.97
2023-02-02T19:42:45.403Z,6.22
2023-02-02T19:45:31.110Z,6.00
2023-02-02T19:48:00.261Z,5.40
2023-02-02T19:50:31.646Z,6.55
2023-02-02T19:52:58.282Z,6.75
2023-02-02T19:55:36.279Z,5.90
2023-02-02T19:58:15.716Z,6.63
2023-02-02T20:00:42.475Z,6.30
2023-02-02T20:03:17.362Z,7.40
2023-02-02T20:05:49.302Z,6.53
2023-02-02T20:08:35.655Z,6.55
2023-02-02T20:11:23.522Z,6.47
2023-02-02T20:13:51.161Z,6.57
2023-02-02T20:16:22.965Z,6.80
2023-02-02T20:18:53.656Z,7.50
2023-02-02T20:21:40.920Z,6.78
2023-02-02T20:24:16.283Z,6.68
2023-02-02T20:26:43.016Z,6.88
2023-02-02T20:29:20.181Z,7.57
2023-02-02T20:31:47.380Z,7.50
2023-02-02T20:34:27.961Z,7.50
2023-02-02T20:37:22.308Z,7.25
2023-02-02T20:39:56.095Z,7.30
2023-02-02T20:42:23.447Z,7.75
2023-02-02T20:44:50.806Z,7.55
2023-02-02T20:47:18.042Z,8.73
2023-02-02T20:49:45.292Z,7.95
2023-02-02T20:52:21.278Z,7.90
2023-02-02T20:54:48.256Z,8.68
2023-02-02T20:57:14.788Z,8.02
2023-02-02T20:59:41.213Z,8.48
2023-02-02T21:02:08.063Z,9.02
2023-02-02T21:04:34.664Z,9.65
2023-02-02T21:07:01.209Z,7.70
2023-02-02T21:09:27.815Z,9.10
2023-02-02T21:11:54.375Z,8.65
2023-02-02T21:14:20.929Z,8.43
2023-02-02T21:16:47.596Z,7.75
2023-02-02T21:19:14.336Z,8.13
2023-02-02T21:21:40.892Z,9.07
2023-02-02T21:24:07.559Z,7.90
2023-02-02T21:26:34.302Z,7.70
2023-02-02T21:29:00.952Z,8.70
2023-02-02T21:31:27.772Z,9.30
2023-02-02T21:33:54.493Z,8.75
2023-02-02T21:36:34.405Z,8.27
2023-02-02T21:39:25.024Z,7.90
2023-02-02T21:42:15.423Z,7.50
2023-02-02T21:45:16.681Z,7.72
2023-02-02T21:47:57.990Z,7.35
2023-02-02T21:50:31.697Z,7.63
2023-02-02T21:53:11.506Z,7.70
2023-02-02T21:55:39.177Z,7.30
2023-02-02T21:58:18.791Z,7.03
2023-02-02T22:00:46.081Z,7.07
2023-02-02T22:03:38.916Z,7.28
2023-02-02T22:06:26.312Z,7.82
2023-02-02T22:09:00.986Z,7.25
2023-02-02T22:11:32.930Z,7.53
2023-02-02T22:14:12.614Z,7.07
2023-02-02T22:16:43.619Z,6.78
2023-02-02T22:19:32.296Z,6.93
2023-02-02T22:22:32.516Z,6.60
2023-02-02T22:25:02.193Z,7.97
2023-02-02T22:27:50.277Z,7.30
2023-02-02T22:30:37.907Z,7.32
2023-02-02T22:33:06.353Z,6.47
2023-02-02T22:35:34.167Z,7.63
2023-02-02T22:38:02.220Z,6.60
2023-02-02T22:40:29.218Z,6.75
2023-02-02T22:43:02.225Z,7.35
2023-02-02T22:45:29.345Z,7.20
2023-02-02T22:47:55.870Z,6.88
2023-02-02T22:50:25.654Z,7.50
2023-02-02T22:52:52.762Z,7.18
2023-02-02T22:55:20.577Z,7.13
2023-02-02T22:57:47.200Z,6.78
2023-02-02T23:00:17.622Z,7.07
2023-02-02T23:02:44.261Z,6.55
2023-02-02T23:05:13.268Z,6.63
2023-02-02T23:07:39.960Z,6.20
2023-02-02T23:10:07.559Z,6.00
2023-02-02T23:12:34.562Z,5.97
2023-02-02T23:15:01.016Z,6.53
2023-02-02T23:17:27.542Z,5.68
2023-02-02T23:19:54.669Z,6.40
2023-02-02T23:22:21.171Z,6.32
2023-02-02T23:24:50.745Z,5.55
2023-02-02T23:27:17.187Z,7.07
2023-02-02T23:29:43.713Z,6.13
2023-02-02T23:32:10.180Z,5.85
2023-02-02T23:34:36.628Z,5.32
2023-02-02T23:37:03.061Z,5.55
2023-02-02T23:39:29.508Z,6.78
2023-02-02T23:41:56.052Z,6.03
2023-02-02T23:44:22.588Z,5.18
2023-02-02T23:46:50.212Z,5.55
2023-02-02T23:49:17.435Z,5.47
2023-02-02T23:51:44.199Z,5.57
2023-02-02T23:54:13.323Z,5.78
2023-02-02T23:56:41.619Z,5.32
2023-02-02T23:59:09.372Z,5.43
